createdAt,value
2022-08-30T00:00:07.735Z,6.63
2022-08-30T00:02:38.276Z,6.22
2022-08-30T00:05:08.425Z,5.90
2022-08-30T00:07:37.312Z,5.72
2022-08-30T00:10:08.253Z,5.85
2022-08-30T00:12:36.922Z,5.80
2022-08-30T00:15:07.170Z,5.30
2022-08-30T00:17:39.408Z,5.70
2022-08-30T00:20:10.954Z,5.90
2022-08-30T00:22:39.986Z,5.68
2022-08-30T00:25:09.381Z,5.93
2022-08-30T00:27:38.474Z,5.90
2022-08-30T00:30:09.656Z,6.25
2022-08-30T00:32:39.830Z,6.35
2022-08-30T00:35:10.574Z,6.22
2022-08-30T00:37:39.412Z,5.97
2022-08-30T00:40:12.123Z,5.97
2022-08-30T00:42:41.083Z,5.90
2022-08-30T00:45:14.772Z,5.78
2022-08-30T00:47:45.360Z,6.20
2022-08-30T00:50:17.569Z,6.05
2022-08-30T00:52:50.246Z,5.93
2022-08-30T00:55:21.166Z,5.40
2022-08-30T00:57:54.277Z,5.55
2022-08-30T01:00:23.222Z,5.97
2022-08-30T01:02:53.759Z,5.50
2022-08-30T01:05:23.993Z,5.45
2022-08-30T01:07:52.940Z,5.53
2022-08-30T01:10:23.194Z,5.32
2022-08-30T01:12:52.205Z,5.82
2022-08-30T01:15:20.938Z,5.63
2022-08-30T01:17:50.545Z,5.72
2022-08-30T01:20:25.360Z,5.80
2022-08-30T01:23:18.475Z,5.30
2022-08-30T01:25:49.774Z,5.30
2022-08-30T01:28:22.147Z,5.22
2022-08-30T01:30:51.569Z,5.22
2022-08-30T01:33:21.179Z,5.28
2022-08-30T01:35:53.830Z,5.82
2022-08-30T01:38:28.209Z,5.55
2022-08-30T01:41:01.480Z,5.65
2022-08-30T01:43:30.338Z,5.70
2022-08-30T01:45:59.414Z,5.63
2022-08-30T01:48:31.175Z,5.30
2022-08-30T01:51:00.435Z,5.55
2022-08-30T01:53:30.969Z,5.78
2022-08-30T01:56:00.005Z,5.55
2022-08-30T01:58:29.955Z,4.90
2022-08-30T02:00:59.294Z,5.32
2022-08-30T02:03:33.088Z,5.00
2022-08-30T02:06:05.114Z,5.00
2022-08-30T02:08:35.878Z,5.07
2022-08-30T02:11:06.696Z,4.97
2022-08-30T02:13:37.492Z,5.22
2022-08-30T02:16:06.670Z,4.53
2022-08-30T02:18:36.327Z,4.20
2022-08-30T02:21:05.379Z,4.28
2022-08-30T02:23:36.705Z,4.17
2022-08-30T02:26:06.653Z,4.10
2022-08-30T02:28:35.330Z,4.30
2022-08-30T02:31:12.743Z,4.13
2022-08-30T02:33:41.632Z,4.20
2022-08-30T02:36:11.013Z,3.70
2022-08-30T02:38:41.547Z,4.03
2022-08-30T02:41:10.617Z,4.25
2022-08-30T02:43:39.657Z,4.17
2022-08-30T02:46:08.464Z,3.67
2022-08-30T02:48:37.803Z,3.72
2022-08-30T02:51:09.316Z,3.40
2022-08-30T02:53:43.731Z,3.85
2022-08-30T02:56:13.518Z,3.30
2022-08-30T02:58:43.725Z,3.72
2022-08-30T03:01:14.857Z,3.45
2022-08-30T03:03:45.668Z,4.13
2022-08-30T03:06:14.722Z,3.93
2022-08-30T03:08:44.769Z,3.57
2022-08-30T03:11:14.401Z,3.60
2022-08-30T03:13:43.524Z,3.50
2022-08-30T03:16:12.550Z,3.30
2022-08-30T03:18:43.183Z,3.37
2022-08-30T03:21:12.944Z,2.73
2022-08-30T03:23:41.832Z,3.00
2022-08-30T03:26:14.970Z,2.80
2022-08-30T03:28:44.655Z,3.00
2022-08-30T03:31:14.086Z,3.15
2022-08-30T03:33:43.319Z,3.00
2022-08-30T03:36:12.902Z,2.85
2022-08-30T03:38:41.799Z,2.90
2022-08-30T03:41:12.844Z,2.78
2022-08-30T03:43:42.143Z,2.67
2022-08-30T03:46:12.872Z,2.60
2022-08-30T03:48:42.098Z,2.50
2022-08-30T03:51:10.692Z,3.10
2022-08-30T03:53:39.263Z,2.97
2022-08-30T03:56:07.991Z,3.00
2022-08-30T03:58:38.657Z,3.10
2022-08-30T04:01:07.608Z,3.23
2022-08-30T04:03:37.226Z,3.03
2022-08-30T04:06:06.506Z,3.33
2022-08-30T04:08:35.123Z,2.77
2022-08-30T04:11:05.031Z,3.10
2022-08-30T04:13:34.118Z,3.00
2022-08-30T04:16:04.616Z,3.10
2022-08-30T04:18:34.851Z,2.88
2022-08-30T04:21:04.235Z,2.50
2022-08-30T04:23:32.901Z,2.40
2022-08-30T04:26:01.691Z,2.42
2022-08-30T04:28:30.801Z,2.13
2022-08-30T04:30:59.546Z,2.38
2022-08-30T04:33:29.943Z,2.53
2022-08-30T04:36:04.971Z,2.22
2022-08-30T04:38:34.739Z,2.03
2022-08-30T04:41:03.621Z,1.85
2022-08-30T04:43:32.280Z,2.10
2022-08-30T04:46:01.135Z,2.10
2022-08-30T04:48:31.650Z,2.20
2022-08-30T04:51:00.488Z,2.10
2022-08-30T04:53:29.391Z,1.92
2022-08-30T04:55:58.347Z,2.00
2022-08-30T04:58:27.028Z,2.17
2022-08-30T05:00:55.843Z,2.05
2022-08-30T05:03:24.453Z,2.45
2022-08-30T05:05:54.835Z,2.28
2022-08-30T05:08:24.905Z,1.98
2022-08-30T05:10:54.073Z,2.55
2022-08-30T05:13:35.011Z,2.58
2022-08-30T05:16:07.700Z,2.20
2022-08-30T05:18:37.101Z,2.65
2022-08-30T05:21:09.961Z,2.50
2022-08-30T05:23:39.689Z,2.50
2022-08-30T05:26:10.183Z,2.80
2022-08-30T05:28:39.432Z,2.70
2022-08-30T05:31:16.215Z,2.20
2022-08-30T05:33:45.962Z,2.13
2022-08-30T05:36:18.806Z,2.60
2022-08-30T05:38:47.464Z,2.40
2022-08-30T05:41:16.721Z,2.53
2022-08-30T05:43:45.806Z,2.53
2022-08-30T05:46:19.597Z,2.70
2022-08-30T05:48:48.927Z,2.55
2022-08-30T05:51:21.505Z,2.53
2022-08-30T05:53:52.153Z,2.55
2022-08-30T05:56:24.770Z,2.30
2022-08-30T05:58:54.683Z,2.70
2022-08-30T06:01:25.979Z,2.50
2022-08-30T06:03:59.290Z,2.08
2022-08-30T06:06:32.993Z,1.95
2022-08-30T06:09:02.625Z,2.20
2022-08-30T06:11:36.281Z,1.67
2022-08-30T06:14:06.826Z,2.20
2022-08-30T06:16:38.863Z,1.88
2022-08-30T06:19:09.687Z,2.03
2022-08-30T06:21:40.688Z,1.70
2022-08-30T06:24:11.728Z,1.67
2022-08-30T06:26:42.926Z,2.10
2022-08-30T06:42:31.673Z,1.60
2022-08-30T06:45:01.058Z,1.65
2022-08-30T06:47:30.182Z,1.50
2022-08-30T06:49:59.741Z,1.90
2022-08-30T06:52:28.362Z,1.80
2022-08-30T06:54:59.270Z,1.48
2022-08-30T06:57:29.285Z,1.48
2022-08-30T06:59:58.373Z,1.50
2022-08-30T07:02:27.553Z,1.70
2022-08-30T07:04:56.479Z,1.30
2022-08-30T07:21:19.167Z,1.08
2022-08-30T07:23:53.452Z,1.60
2022-08-30T07:26:25.256Z,1.25
2022-08-30T07:28:56.231Z,1.48
2022-08-30T07:31:26.538Z,1.40
2022-08-30T07:33:55.930Z,1.20
2022-08-30T07:36:26.424Z,1.52
2022-08-30T07:38:55.853Z,1.05
2022-08-30T07:41:28.112Z,1.20
2022-08-30T07:43:57.270Z,1.08
2022-08-30T07:46:28.227Z,1.25
2022-08-30T07:48:57.424Z,1.00
2022-08-30T07:51:29.598Z,1.10
2022-08-30T07:53:58.742Z,0.90
2022-08-30T07:56:27.658Z,0.90
2022-08-30T07:58:56.972Z,1.08
2022-08-30T08:01:26.077Z,1.02
2022-08-30T08:03:54.839Z,0.93
2022-08-30T08:06:25.095Z,0.70
2022-08-30T08:08:56.500Z,0.93
2022-08-30T08:11:32.882Z,0.90
2022-08-30T08:14:03.328Z,1.10
2022-08-30T08:16:34.631Z,1.30
2022-08-30T08:19:04.625Z,1.20
2022-08-30T08:21:33.595Z,0.75
2022-08-30T08:24:04.671Z,1.00
2022-08-30T08:26:35.985Z,0.75
2022-08-30T08:29:05.966Z,1.20
2022-08-30T08:31:34.989Z,0.90
2022-08-30T08:34:06.099Z,0.77
2022-08-30T08:36:36.364Z,0.70
2022-08-30T08:39:08.050Z,0.88
2022-08-30T08:41:45.166Z,0.80
2022-08-30T08:44:22.385Z,0.88
2022-08-30T08:47:00.907Z,0.95
2022-08-30T08:49:33.177Z,1.02
2022-08-30T08:52:19.462Z,0.85
2022-08-30T09:16:52.852Z,0.80
2022-08-30T09:19:37.758Z,0.80
2022-08-30T09:22:13.517Z,1.17
2022-08-30T09:24:44.728Z,0.90
2022-08-30T09:27:24.139Z,0.73
2022-08-30T09:30:00.284Z,1.00
2022-08-30T09:32:37.952Z,0.60
2022-08-30T09:35:10.364Z,0.80
2022-08-30T09:37:46.485Z,0.50
2022-08-30T09:40:26.168Z,0.60
2022-08-30T09:43:07.459Z,0.70
2022-08-30T09:45:39.614Z,0.80
2022-08-30T09:48:30.098Z,1.77
2022-08-30T09:51:26.487Z,0.77
2022-08-30T09:54:17.463Z,0.60
2022-08-30T09:56:54.635Z,0.60
2022-08-30T09:59:39.704Z,0.80
2022-08-30T10:02:35.341Z,0.70
2022-08-30T10:05:12.078Z,0.70
2022-08-30T10:07:51.175Z,0.82
2022-08-30T10:10:35.639Z,0.43
2022-08-30T10:13:18.531Z,0.80
2022-08-30T10:15:53.407Z,0.70
2022-08-30T10:18:28.146Z,0.50
2022-08-30T10:21:08.202Z,0.57
2022-08-30T10:23:42.315Z,0.47
2022-08-30T10:26:19.435Z,0.52
2022-08-30T10:28:56.790Z,0.50
2022-08-30T10:31:29.075Z,0.68
2022-08-30T10:34:04.193Z,0.50
2022-08-30T10:36:45.550Z,1.00
2022-08-30T10:39:20.485Z,0.65
2022-08-30T10:41:54.691Z,0.90
2022-08-30T10:44:28.709Z,0.50
2022-08-30T10:47:07.770Z,0.82
2022-08-30T10:49:40.864Z,0.70
2022-08-30T10:52:25.539Z,0.80
2022-08-30T10:55:00.727Z,0.93
2022-08-30T10:57:29.387Z,0.98
2022-08-30T11:00:02.690Z,0.52
2022-08-30T11:03:23.613Z,0.90
2022-08-30T11:06:05.904Z,0.70
2022-08-30T11:09:12.273Z,0.57
2022-08-30T11:11:57.480Z,0.55
2022-08-30T11:14:27.435Z,0.50
2022-08-30T11:17:00.460Z,0.52
2022-08-30T11:19:35.776Z,0.85
2022-08-30T11:22:14.609Z,0.70
2022-08-30T11:25:18.377Z,0.57
2022-08-30T11:27:51.526Z,0.60
2022-08-30T11:30:48.488Z,0.80
2022-08-30T11:33:41.355Z,0.50
2022-08-30T11:36:11.156Z,0.70
2022-08-30T11:39:00.007Z,0.55
2022-08-30T11:41:41.881Z,0.50
2022-08-30T11:44:28.426Z,0.50
2022-08-30T11:46:59.992Z,0.70
2022-08-30T11:49:58.889Z,0.68
2022-08-30T11:52:51.324Z,0.40
2022-08-30T11:55:40.997Z,0.50
2022-08-30T11:58:25.943Z,0.90
2022-08-30T12:01:50.143Z,0.60
2022-08-30T12:04:30.156Z,0.55
2022-08-30T12:07:04.135Z,0.80
2022-08-30T12:10:04.817Z,0.50
2022-08-30T12:12:58.460Z,0.60
2022-08-30T12:15:57.411Z,0.60
2022-08-30T12:18:36.902Z,0.80
2022-08-30T12:21:15.585Z,0.60
2022-08-30T12:23:52.697Z,1.08
2022-08-30T12:26:32.461Z,0.80
2022-08-30T12:29:15.766Z,0.80
2022-08-30T12:31:48.598Z,0.88
2022-08-30T12:34:28.794Z,0.98
2022-08-30T12:37:03.028Z,0.95
2022-08-30T12:39:36.518Z,0.50
2022-08-30T12:42:19.868Z,0.73
2022-08-30T12:44:50.092Z,0.70
2022-08-30T12:47:24.046Z,0.85
2022-08-30T12:49:55.350Z,1.00
2022-08-30T12:52:32.014Z,1.05
2022-08-30T12:55:17.360Z,1.10
2022-08-30T12:58:01.360Z,1.40
2022-08-30T13:00:32.266Z,1.17
2022-08-30T13:03:16.465Z,0.80
2022-08-30T13:05:50.080Z,1.20
2022-08-30T13:08:25.390Z,1.05
2022-08-30T13:10:58.659Z,0.90
2022-08-30T13:13:35.182Z,0.77
2022-08-30T13:16:24.802Z,1.23
2022-08-30T13:18:57.160Z,0.90
2022-08-30T13:21:30.470Z,0.90
2022-08-30T13:24:01.660Z,0.82
2022-08-30T13:26:33.914Z,1.20
2022-08-30T13:29:04.975Z,1.10
2022-08-30T13:31:39.374Z,0.60
2022-08-30T13:34:09.680Z,0.80
2022-08-30T13:36:47.436Z,0.85
2022-08-30T13:39:16.706Z,0.47
2022-08-30T13:41:52.015Z,0.80
2022-08-30T13:44:21.512Z,0.70
2022-08-30T13:46:55.163Z,0.80
2022-08-30T13:49:43.520Z,0.63
2022-08-30T13:52:21.978Z,0.60
2022-08-30T13:54:52.474Z,0.55
2022-08-30T14:00:17.937Z,0.88
2022-08-30T14:02:54.808Z,0.73
2022-08-30T14:11:11.444Z,0.95
2022-08-30T14:16:33.103Z,0.82
2022-08-30T14:19:03.022Z,0.70
2022-08-30T14:21:31.907Z,0.68
2022-08-30T14:24:02.043Z,0.50
2022-08-30T14:26:33.825Z,0.52
2022-08-30T14:29:04.326Z,0.60
2022-08-30T14:31:33.903Z,0.80
2022-08-30T14:34:04.081Z,0.60
2022-08-30T14:36:34.160Z,0.73
2022-08-30T14:39:08.378Z,0.70
2022-08-30T14:41:43.871Z,0.70
2022-08-30T14:44:13.313Z,0.50
2022-08-30T14:46:42.336Z,0.88
2022-08-30T14:49:12.225Z,0.90
2022-08-30T14:51:41.991Z,0.80
2022-08-30T14:54:12.388Z,1.17
2022-08-30T14:56:42.235Z,0.70
2022-08-30T14:59:12.161Z,0.82
2022-08-30T15:01:43.305Z,0.52
2022-08-30T15:04:13.074Z,0.60
2022-08-30T15:06:44.207Z,0.68
2022-08-30T15:09:18.668Z,0.90
2022-08-30T15:11:53.854Z,0.70
2022-08-30T15:14:24.416Z,1.20
2022-08-30T15:16:56.045Z,0.50
2022-08-30T15:19:24.882Z,0.70
2022-08-30T15:21:53.633Z,0.65
2022-08-30T15:24:29.515Z,0.60
2022-08-30T15:27:00.178Z,0.70
2022-08-30T15:29:30.727Z,0.63
2022-08-30T15:32:02.625Z,0.60
2022-08-30T15:34:32.374Z,1.10
2022-08-30T15:37:02.182Z,0.70
2022-08-30T15:39:33.586Z,0.85
2022-08-30T15:42:02.795Z,0.82
2022-08-30T15:44:34.425Z,0.88
2022-08-30T15:47:03.880Z,1.02
2022-08-30T15:49:32.948Z,0.77
2022-08-30T15:52:02.844Z,0.63
2022-08-30T15:54:33.504Z,0.55
2022-08-30T15:57:02.381Z,1.17
2022-08-30T15:59:34.675Z,0.57
2022-08-30T16:02:03.651Z,0.73
2022-08-30T16:04:32.519Z,0.60
2022-08-30T16:07:01.362Z,0.88
2022-08-30T16:09:32.565Z,0.80
2022-08-30T16:12:04.957Z,0.77
2022-08-30T16:14:33.803Z,0.93
2022-08-30T16:17:03.522Z,0.77
2022-08-30T16:19:34.404Z,1.00
2022-08-30T16:22:03.194Z,1.10
2022-08-30T16:24:32.095Z,0.90
2022-08-30T16:27:03.974Z,1.02
2022-08-30T16:29:32.661Z,0.75
2022-08-30T16:32:02.402Z,0.60
2022-08-30T16:34:31.213Z,1.20
2022-08-30T16:37:02.339Z,1.20
2022-08-30T16:39:31.242Z,0.90
2022-08-30T16:42:03.106Z,1.00
2022-08-30T16:44:33.511Z,0.90
2022-08-30T16:47:03.805Z,0.80
2022-08-30T16:49:32.689Z,0.80
2022-08-30T16:52:01.681Z,0.77
2022-08-30T16:54:32.038Z,1.10
2022-08-30T16:57:01.495Z,0.95
2022-08-30T16:59:30.475Z,1.00
2022-08-30T17:02:01.790Z,1.30
2022-08-30T17:04:32.264Z,1.00
2022-08-30T17:07:01.064Z,0.85
2022-08-30T17:09:30.043Z,1.20
2022-08-30T17:11:59.146Z,1.15
2022-08-30T17:14:29.326Z,1.13
2022-08-30T17:17:00.478Z,1.40
2022-08-30T17:19:31.401Z,1.05
2022-08-30T17:22:00.450Z,1.10
2022-08-30T17:24:29.445Z,1.15
2022-08-30T17:26:58.270Z,1.05
2022-08-30T17:29:27.640Z,1.02
2022-08-30T17:31:57.114Z,0.90
2022-08-30T17:34:26.617Z,1.38
2022-08-30T17:36:59.868Z,1.63
2022-08-30T17:39:29.778Z,1.10
2022-08-30T17:41:58.908Z,1.13
2022-08-30T17:44:32.622Z,0.90
2022-08-30T17:47:01.916Z,1.17
2022-08-30T17:49:33.290Z,1.30
2022-08-30T17:52:04.425Z,1.02
2022-08-30T17:54:35.733Z,1.50
2022-08-30T17:57:10.808Z,1.40
2022-08-30T17:59:40.658Z,1.63
2022-08-30T18:02:11.083Z,1.27
2022-08-30T18:04:41.867Z,1.10
2022-08-30T18:07:12.695Z,1.38
2022-08-30T18:09:42.151Z,1.13
2022-08-30T18:12:11.870Z,1.10
2022-08-30T18:14:40.640Z,1.20
2022-08-30T18:17:09.757Z,1.58
2022-08-30T18:19:46.139Z,1.45
2022-08-30T18:22:17.673Z,1.80
2022-08-30T18:24:48.122Z,1.55
2022-08-30T18:27:17.031Z,1.63
2022-08-30T18:29:45.874Z,1.77
2022-08-30T18:32:14.817Z,2.10
2022-08-30T18:34:44.141Z,1.50
2022-08-30T18:37:13.762Z,1.77
2022-08-30T18:39:48.419Z,2.40
2022-08-30T18:42:19.424Z,2.45
2022-08-30T18:44:49.620Z,2.35
2022-08-30T18:47:23.101Z,2.55
2022-08-30T18:49:54.185Z,4.30
2022-08-30T18:52:23.264Z,2.83
2022-08-30T18:54:53.667Z,2.85
2022-08-30T18:57:23.119Z,3.60
2022-08-30T18:59:51.767Z,2.92
2022-08-30T19:02:20.864Z,3.17
2022-08-30T19:04:56.280Z,2.78
2022-08-30T19:07:28.958Z,2.22
2022-08-30T19:10:05.277Z,2.40
2022-08-30T19:12:34.115Z,2.42
2022-08-30T19:15:11.017Z,2.97
2022-08-30T19:17:43.736Z,2.45
2022-08-30T19:20:14.412Z,2.45
2022-08-30T19:23:08.937Z,2.80
2022-08-30T19:25:34.202Z,2.47
2022-08-30T19:28:03.636Z,2.30
2022-08-30T19:30:34.768Z,2.70
2022-08-30T19:33:03.593Z,3.55
2022-08-30T19:35:35.050Z,2.83
2022-08-30T19:38:03.657Z,2.80
2022-08-30T19:40:34.464Z,2.70
2022-08-30T19:43:04.672Z,2.72
2022-08-30T19:45:33.879Z,2.90
2022-08-30T19:48:02.881Z,3.43
2022-08-30T19:50:31.499Z,3.20
2022-08-30T19:53:00.084Z,3.67
2022-08-30T19:55:31.306Z,4.47
2022-08-30T19:58:01.834Z,4.07
2022-08-30T20:00:31.287Z,4.70
2022-08-30T20:03:01.577Z,4.10
2022-08-30T20:05:31.191Z,3.55
2022-08-30T20:08:00.083Z,2.50
2022-08-30T20:10:28.699Z,2.10
2022-08-30T20:12:57.417Z,2.23
2022-08-30T20:15:27.732Z,2.20
2022-08-30T20:18:05.359Z,1.90
2022-08-30T20:20:36.443Z,2.13
2022-08-30T20:23:06.126Z,1.90
2022-08-30T20:25:35.165Z,1.70
2022-08-30T20:28:04.461Z,1.70
2022-08-30T20:30:35.986Z,1.70
2022-08-30T20:33:08.457Z,1.40
2022-08-30T20:35:38.391Z,1.67
2022-08-30T20:38:07.285Z,1.77
2022-08-30T20:40:37.179Z,1.67
2022-08-30T20:43:06.356Z,1.60
2022-08-30T20:48:22.820Z,2.20
2022-08-30T20:50:51.616Z,1.40
2022-08-30T20:53:20.493Z,1.50
2022-08-30T20:55:49.821Z,1.83
2022-08-30T20:58:18.770Z,1.90
2022-08-30T21:00:52.792Z,1.73
2022-08-30T21:03:26.439Z,1.77
2022-08-30T21:05:57.248Z,1.80
2022-08-30T21:08:26.745Z,1.93
2022-08-30T21:10:55.834Z,1.60
2022-08-30T21:13:24.731Z,1.80
2022-08-30T21:16:00.360Z,1.80
2022-08-30T21:18:34.091Z,1.70
2022-08-30T21:21:10.111Z,1.73
2022-08-30T21:23:38.705Z,2.10
2022-08-30T21:26:08.042Z,1.80
2022-08-30T21:28:37.183Z,1.60
2022-08-30T21:31:10.199Z,1.83
2022-08-30T21:33:39.386Z,2.10
2022-08-30T21:36:27.398Z,1.73
2022-08-30T21:39:00.571Z,2.20
2022-08-30T21:41:31.759Z,2.10
2022-08-30T21:44:02.738Z,2.10
2022-08-30T21:46:34.743Z,2.37
2022-08-30T21:49:06.824Z,1.77
2022-08-30T21:51:38.551Z,1.80
2022-08-30T21:54:09.642Z,1.90
2022-08-30T21:56:40.058Z,1.97
2022-08-30T21:59:10.170Z,1.90
2022-08-30T22:01:41.606Z,2.07
2022-08-30T22:04:11.180Z,2.40
2022-08-30T22:06:42.005Z,1.87
2022-08-30T22:09:13.879Z,1.90
2022-08-30T22:11:43.995Z,2.10
2022-08-30T22:14:14.392Z,2.20
2022-08-30T22:16:45.301Z,1.90
2022-08-30T22:19:14.556Z,1.87
2022-08-30T22:21:44.788Z,2.10
2022-08-30T22:24:13.573Z,2.07
2022-08-30T22:26:42.314Z,2.20
2022-08-30T22:29:11.860Z,2.27
2022-08-30T22:31:41.644Z,2.27
2022-08-30T22:34:12.447Z,2.30
2022-08-30T22:36:41.108Z,2.33
2022-08-30T22:39:10.967Z,2.80
2022-08-30T22:41:41.433Z,2.37
2022-08-30T22:44:11.338Z,1.80
2022-08-30T22:46:41.189Z,2.33
2022-08-30T22:49:13.024Z,2.43
2022-08-30T22:51:43.549Z,2.40
2022-08-30T22:54:12.493Z,2.53
2022-08-30T22:56:41.803Z,2.73
2022-08-30T22:59:10.902Z,2.83
2022-08-30T23:01:43.115Z,2.33
2022-08-30T23:04:14.047Z,2.43
2022-08-30T23:06:49.780Z,2.63
2022-08-30T23:09:19.589Z,2.37
2022-08-30T23:11:48.293Z,2.43
2022-08-30T23:14:17.040Z,2.17
2022-08-30T23:16:45.681Z,2.07
2022-08-30T23:19:16.092Z,2.50
2022-08-30T23:21:45.144Z,2.40
2022-08-30T23:24:31.066Z,1.83
2022-08-30T23:27:16.993Z,2.20
2022-08-30T23:30:02.919Z,2.30
2022-08-30T23:32:48.804Z,1.77
2022-08-30T23:35:36.470Z,2.33
2022-08-30T23:38:24.467Z,2.10
2022-08-30T23:41:10.592Z,2.40
2022-08-30T23:43:56.812Z,1.87
2022-08-30T23:46:43.203Z,2.60
2022-08-30T23:49:29.020Z,2.40
2022-08-30T23:52:16.489Z,2.70
2022-08-30T23:55:02.287Z,1.90
2022-08-30T23:57:48.259Z,2.50
